sensor_id;sensor_type;location;lat;lon;timestamp;P1;durP1;ratioP1;P2;durP2;ratioP2
12631;SDS011;6381;45.748;12.106;2023-08-31T00:00:31;2.05;;;1.85;;
12631;SDS011;6381;45.748;12.106;2023-08-31T00:03:01;1.80;;;1.67;;
12631;SDS011;6381;45.748;12.106;2023-08-31T00:05:30;1.80;;;1.70;;
12631;SDS011;6381;45.748;12.106;2023-08-31T00:10:57;1.83;;;1.73;;
12631;SDS011;6381;45.748;12.106;2023-08-31T00:13:27;2.65;;;2.10;;
12631;SDS011;6381;45.748;12.106;2023-08-31T00:15:56;3.40;;;1.90;;
12631;SDS011;6381;45.748;12.106;2023-08-31T00:18:26;2.78;;;2.00;;
12631;SDS011;6381;45.748;12.106;2023-08-31T00:20:55;2.70;;;1.92;;
12631;SDS011;6381;45.748;12.106;2023-08-31T00:23:25;3.42;;;2.05;;
12631;SDS011;6381;45.748;12.106;2023-08-31T00:25:54;2.90;;;1.98;;
12631;SDS011;6381;45.748;12.106;2023-08-31T00:28:25;4.50;;;2.10;;
12631;SDS011;6381;45.748;12.106;2023-08-31T00:30:54;3.05;;;2.00;;
12631;SDS011;6381;45.748;12.106;2023-08-31T00:33:25;2.83;;;1.80;;
12631;SDS011;6381;45.748;12.106;2023-08-31T00:35:54;2.53;;;1.90;;
12631;SDS011;6381;45.748;12.106;2023-08-31T00:38:28;2.95;;;2.17;;
12631;SDS011;6381;45.748;12.106;2023-08-31T00:40:59;3.95;;;1.95;;
12631;SDS011;6381;45.748;12.106;2023-08-31T00:43:30;2.83;;;1.85;;
12631;SDS011;6381;45.748;12.106;2023-08-31T00:46:00;2.42;;;2.22;;
12631;SDS011;6381;45.748;12.106;2023-08-31T00:48:31;3.00;;;2.05;;
12631;SDS011;6381;45.748;12.106;2023-08-31T00:51:00;2.38;;;2.17;;
12631;SDS011;6381;45.748;12.106;2023-08-31T00:53:30;2.78;;;2.35;;
12631;SDS011;6381;45.748;12.106;2023-08-31T00:56:00;4.50;;;2.40;;
12631;SDS011;6381;45.748;12.106;2023-08-31T00:58:33;3.25;;;2.60;;
12631;SDS011;6381;45.748;12.106;2023-08-31T01:01:03;3.00;;;2.58;;
12631;SDS011;6381;45.748;12.106;2023-08-31T01:03:40;2.60;;;2.40;;
12631;SDS011;6381;45.748;12.106;2023-08-31T01:06:18;3.28;;;2.88;;
12631;SDS011;6381;45.748;12.106;2023-08-31T01:08:56;3.05;;;2.70;;
12631;SDS011;6381;45.748;12.106;2023-08-31T01:11:39;3.13;;;2.83;;
12631;SDS011;6381;45.748;12.106;2023-08-31T01:14:19;4.45;;;2.80;;
12631;SDS011;6381;45.748;12.106;2023-08-31T01:16:53;5.03;;;2.63;;
12631;SDS011;6381;45.748;12.106;2023-08-31T01:19:34;2.97;;;2.70;;
12631;SDS011;6381;45.748;12.106;2023-08-31T01:22:14;5.70;;;2.83;;
12631;SDS011;6381;45.748;12.106;2023-08-31T01:24:55;4.03;;;2.55;;
12631;SDS011;6381;45.748;12.106;2023-08-31T01:27:28;3.13;;;2.40;;
12631;SDS011;6381;45.748;12.106;2023-08-31T01:29:57;3.63;;;2.70;;
12631;SDS011;6381;45.748;12.106;2023-08-31T01:32:27;3.13;;;2.55;;
12631;SDS011;6381;45.748;12.106;2023-08-31T01:34:56;3.30;;;2.55;;
12631;SDS011;6381;45.748;12.106;2023-08-31T01:37:29;3.65;;;2.72;;
12631;SDS011;6381;45.748;12.106;2023-08-31T01:40:06;2.80;;;2.60;;
12631;SDS011;6381;45.748;12.106;2023-08-31T01:42:41;3.63;;;2.92;;
12631;SDS011;6381;45.748;12.106;2023-08-31T01:45:12;5.28;;;2.53;;
12631;SDS011;6381;45.748;12.106;2023-08-31T01:47:48;2.80;;;2.60;;
12631;SDS011;6381;45.748;12.106;2023-08-31T01:50:17;3.08;;;2.50;;
12631;SDS011;6381;45.748;12.106;2023-08-31T01:52:47;5.78;;;2.58;;
12631;SDS011;6381;45.748;12.106;2023-08-31T01:55:18;2.55;;;2.35;;
12631;SDS011;6381;45.748;12.106;2023-08-31T01:57:48;3.55;;;2.67;;
12631;SDS011;6381;45.748;12.106;2023-08-31T02:00:21;4.00;;;2.80;;
12631;SDS011;6381;45.748;12.106;2023-08-31T02:02:50;4.47;;;2.90;;
12631;SDS011;6381;45.748;12.106;2023-08-31T02:05:20;3.80;;;3.17;;
12631;SDS011;6381;45.748;12.106;2023-08-31T02:07:52;2.95;;;2.55;;
12631;SDS011;6381;45.748;12.106;2023-08-31T02:10:23;2.83;;;2.42;;
12631;SDS011;6381;45.748;12.106;2023-08-31T02:12:54;7.60;;;3.15;;
12631;SDS011;6381;45.748;12.106;2023-08-31T02:15:23;3.50;;;2.63;;
12631;SDS011;6381;45.748;12.106;2023-08-31T02:17:53;4.53;;;2.30;;
12631;SDS011;6381;45.748;12.106;2023-08-31T02:20:22;3.78;;;2.65;;
12631;SDS011;6381;45.748;12.106;2023-08-31T02:22:51;4.97;;;2.70;;
12631;SDS011;6381;45.748;12.106;2023-08-31T02:25:21;3.33;;;2.63;;
12631;SDS011;6381;45.748;12.106;2023-08-31T02:27:51;7.95;;;2.47;;
12631;SDS011;6381;45.748;12.106;2023-08-31T02:30:21;4.38;;;2.60;;
12631;SDS011;6381;45.748;12.106;2023-08-31T02:32:50;4.15;;;2.38;;
12631;SDS011;6381;45.748;12.106;2023-08-31T02:35:19;2.78;;;2.17;;
12631;SDS011;6381;45.748;12.106;2023-08-31T02:37:49;5.75;;;2.50;;
12631;SDS011;6381;45.748;12.106;2023-08-31T02:40:18;2.50;;;2.30;;
12631;SDS011;6381;45.748;12.106;2023-08-31T02:42:50;4.38;;;2.42;;
12631;SDS011;6381;45.748;12.106;2023-08-31T02:45:20;3.33;;;2.22;;
12631;SDS011;6381;45.748;12.106;2023-08-31T02:47:50;6.53;;;2.60;;
12631;SDS011;6381;45.748;12.106;2023-08-31T02:50:19;3.28;;;2.28;;
12631;SDS011;6381;45.748;12.106;2023-08-31T02:52:49;4.05;;;2.63;;
12631;SDS011;6381;45.748;12.106;2023-08-31T02:55:18;3.97;;;2.60;;
12631;SDS011;6381;45.748;12.106;2023-08-31T02:57:48;2.90;;;2.55;;
12631;SDS011;6381;45.748;12.106;2023-08-31T03:00:19;3.45;;;2.22;;
12631;SDS011;6381;45.748;12.106;2023-08-31T03:02:49;3.53;;;2.40;;
12631;SDS011;6381;45.748;12.106;2023-08-31T03:05:19;4.43;;;2.20;;
12631;SDS011;6381;45.748;12.106;2023-08-31T03:07:49;4.45;;;2.30;;
12631;SDS011;6381;45.748;12.106;2023-08-31T03:10:18;3.42;;;2.60;;
12631;SDS011;6381;45.748;12.106;2023-08-31T03:12:50;2.67;;;2.17;;
12631;SDS011;6381;45.748;12.106;2023-08-31T03:15:20;3.38;;;2.10;;
12631;SDS011;6381;45.748;12.106;2023-08-31T03:17:50;3.78;;;2.47;;
12631;SDS011;6381;45.748;12.106;2023-08-31T03:20:21;2.60;;;2.00;;
12631;SDS011;6381;45.748;12.106;2023-08-31T03:22:50;3.25;;;2.33;;
12631;SDS011;6381;45.748;12.106;2023-08-31T03:25:19;2.42;;;2.00;;
12631;SDS011;6381;45.748;12.106;2023-08-31T03:27:49;3.65;;;2.00;;
12631;SDS011;6381;45.748;12.106;2023-08-31T03:30:18;4.00;;;1.90;;
12631;SDS011;6381;45.748;12.106;2023-08-31T03:32:49;8.40;;;2.42;;
12631;SDS011;6381;45.748;12.106;2023-08-31T03:35:18;2.85;;;1.70;;
12631;SDS011;6381;45.748;12.106;2023-08-31T03:37:49;4.22;;;2.03;;
12631;SDS011;6381;45.748;12.106;2023-08-31T03:40:19;5.10;;;2.00;;
12631;SDS011;6381;45.748;12.106;2023-08-31T03:42:50;3.15;;;1.80;;
12631;SDS011;6381;45.748;12.106;2023-08-31T03:45:19;4.65;;;2.13;;
12631;SDS011;6381;45.748;12.106;2023-08-31T03:47:51;3.05;;;1.80;;
12631;SDS011;6381;45.748;12.106;2023-08-31T03:50:20;2.17;;;1.77;;
12631;SDS011;6381;45.748;12.106;2023-08-31T03:52:49;5.65;;;2.03;;
12631;SDS011;6381;45.748;12.106;2023-08-31T03:55:19;5.00;;;2.15;;
12631;SDS011;6381;45.748;12.106;2023-08-31T03:57:48;2.20;;;1.83;;
12631;SDS011;6381;45.748;12.106;2023-08-31T04:00:21;2.88;;;2.00;;
12631;SDS011;6381;45.748;12.106;2023-08-31T04:02:53;2.10;;;1.90;;
12631;SDS011;6381;45.748;12.106;2023-08-31T04:05:26;3.83;;;2.00;;
12631;SDS011;6381;45.748;12.106;2023-08-31T04:07:55;5.28;;;2.05;;
12631;SDS011;6381;45.748;12.106;2023-08-31T04:10:25;3.75;;;2.20;;
12631;SDS011;6381;45.748;12.106;2023-08-31T04:12:56;4.13;;;2.20;;
12631;SDS011;6381;45.748;12.106;2023-08-31T04:15:27;4.35;;;2.28;;
12631;SDS011;6381;45.748;12.106;2023-08-31T04:17:59;3.38;;;2.15;;
12631;SDS011;6381;45.748;12.106;2023-08-31T04:20:28;4.43;;;2.42;;
12631;SDS011;6381;45.748;12.106;2023-08-31T04:22:58;4.25;;;2.40;;
12631;SDS011;6381;45.748;12.106;2023-08-31T04:25:28;2.17;;;1.90;;
12631;SDS011;6381;45.748;12.106;2023-08-31T04:27:59;3.08;;;2.50;;
12631;SDS011;6381;45.748;12.106;2023-08-31T04:30:29;3.38;;;2.33;;
12631;SDS011;6381;45.748;12.106;2023-08-31T04:33:00;2.20;;;1.95;;
12631;SDS011;6381;45.748;12.106;2023-08-31T04:35:31;4.07;;;2.30;;
12631;SDS011;6381;45.748;12.106;2023-08-31T04:38:00;3.35;;;2.20;;
12631;SDS011;6381;45.748;12.106;2023-08-31T04:40:30;2.67;;;2.20;;
12631;SDS011;6381;45.748;12.106;2023-08-31T04:42:59;3.63;;;2.15;;
12631;SDS011;6381;45.748;12.106;2023-08-31T04:45:28;3.65;;;2.30;;
12631;SDS011;6381;45.748;12.106;2023-08-31T04:47:58;2.88;;;2.38;;
12631;SDS011;6381;45.748;12.106;2023-08-31T04:50:30;3.03;;;2.40;;
12631;SDS011;6381;45.748;12.106;2023-08-31T04:52:59;2.60;;;2.40;;
12631;SDS011;6381;45.748;12.106;2023-08-31T04:55:28;4.00;;;2.25;;
12631;SDS011;6381;45.748;12.106;2023-08-31T04:57:57;5.40;;;2.47;;
12631;SDS011;6381;45.748;12.106;2023-08-31T05:00:27;3.13;;;2.38;;
12631;SDS011;6381;45.748;12.106;2023-08-31T05:02:56;4.25;;;2.65;;
12631;SDS011;6381;45.748;12.106;2023-08-31T05:05:27;3.05;;;2.35;;
12631;SDS011;6381;45.748;12.106;2023-08-31T05:07:59;3.80;;;2.50;;
12631;SDS011;6381;45.748;12.106;2023-08-31T05:10:28;4.57;;;2.47;;
12631;SDS011;6381;45.748;12.106;2023-08-31T05:12:57;4.13;;;2.40;;
12631;SDS011;6381;45.748;12.106;2023-08-31T05:15:27;3.67;;;2.45;;
12631;SDS011;6381;45.748;12.106;2023-08-31T05:17:57;2.90;;;2.55;;
12631;SDS011;6381;45.748;12.106;2023-08-31T05:20:28;3.67;;;2.97;;
12631;SDS011;6381;45.748;12.106;2023-08-31T05:22:57;3.60;;;2.70;;
12631;SDS011;6381;45.748;12.106;2023-08-31T05:25:28;3.00;;;2.72;;
12631;SDS011;6381;45.748;12.106;2023-08-31T05:27:57;3.40;;;3.05;;
12631;SDS011;6381;45.748;12.106;2023-08-31T05:30:26;4.28;;;3.13;;
12631;SDS011;6381;45.748;12.106;2023-08-31T05:32:55;6.13;;;3.80;;
12631;SDS011;6381;45.748;12.106;2023-08-31T05:35:25;4.35;;;3.25;;
12631;SDS011;6381;45.748;12.106;2023-08-31T05:37:56;6.30;;;3.75;;
12631;SDS011;6381;45.748;12.106;2023-08-31T05:40:25;5.30;;;3.88;;
12631;SDS011;6381;45.748;12.106;2023-08-31T05:42:54;6.60;;;3.70;;
12631;SDS011;6381;45.748;12.106;2023-08-31T05:45:23;4.03;;;3.38;;
12631;SDS011;6381;45.748;12.106;2023-08-31T05:47:53;3.50;;;3.20;;
12631;SDS011;6381;45.748;12.106;2023-08-31T05:50:23;4.78;;;3.80;;
12631;SDS011;6381;45.748;12.106;2023-08-31T05:52:52;3.65;;;3.20;;
12631;SDS011;6381;45.748;12.106;2023-08-31T05:55:23;4.15;;;3.30;;
12631;SDS011;6381;45.748;12.106;2023-08-31T05:57:52;5.65;;;3.67;;
12631;SDS011;6381;45.748;12.106;2023-08-31T06:00:21;6.05;;;3.80;;
12631;SDS011;6381;45.748;12.106;2023-08-31T06:02:51;5.13;;;3.53;;
12631;SDS011;6381;45.748;12.106;2023-08-31T06:05:20;4.10;;;3.50;;
12631;SDS011;6381;45.748;12.106;2023-08-31T06:07:50;3.80;;;3.40;;
12631;SDS011;6381;45.748;12.106;2023-08-31T06:10:19;5.50;;;3.47;;
12631;SDS011;6381;45.748;12.106;2023-08-31T06:12:51;6.28;;;3.85;;
12631;SDS011;6381;45.748;12.106;2023-08-31T06:15:21;6.45;;;3.60;;
12631;SDS011;6381;45.748;12.106;2023-08-31T06:17:50;4.85;;;3.33;;
12631;SDS011;6381;45.748;12.106;2023-08-31T06:20:19;4.50;;;3.17;;
12631;SDS011;6381;45.748;12.106;2023-08-31T06:22:49;4.65;;;3.30;;
12631;SDS011;6381;45.748;12.106;2023-08-31T06:25:18;6.88;;;3.20;;
12631;SDS011;6381;45.748;12.106;2023-08-31T06:27:52;2.90;;;2.30;;
12631;SDS011;6381;45.748;12.106;2023-08-31T06:30:22;3.40;;;2.78;;
12631;SDS011;6381;45.748;12.106;2023-08-31T06:32:51;5.63;;;2.72;;
12631;SDS011;6381;45.748;12.106;2023-08-31T06:35:21;2.50;;;2.30;;
12631;SDS011;6381;45.748;12.106;2023-08-31T06:37:51;2.55;;;2.35;;
12631;SDS011;6381;45.748;12.106;2023-08-31T06:40:22;2.40;;;2.20;;
12631;SDS011;6381;45.748;12.106;2023-08-31T06:42:54;3.10;;;2.40;;
12631;SDS011;6381;45.748;12.106;2023-08-31T06:45:23;3.17;;;2.53;;
12631;SDS011;6381;45.748;12.106;2023-08-31T06:47:52;4.07;;;2.30;;
12631;SDS011;6381;45.748;12.106;2023-08-31T06:50:22;2.50;;;2.20;;
12631;SDS011;6381;45.748;12.106;2023-08-31T06:52:51;3.42;;;2.33;;
12631;SDS011;6381;45.748;12.106;2023-08-31T06:55:20;3.35;;;2.20;;
12631;SDS011;6381;45.748;12.106;2023-08-31T06:57:51;3.58;;;2.33;;
12631;SDS011;6381;45.748;12.106;2023-08-31T07:00:24;3.25;;;2.35;;
12631;SDS011;6381;45.748;12.106;2023-08-31T07:02:53;2.25;;;2.05;;
12631;SDS011;6381;45.748;12.106;2023-08-31T07:05:24;4.10;;;2.13;;
12631;SDS011;6381;45.748;12.106;2023-08-31T07:07:55;5.70;;;2.10;;
12631;SDS011;6381;45.748;12.106;2023-08-31T07:10:25;3.42;;;2.03;;
12631;SDS011;6381;45.748;12.106;2023-08-31T07:12:54;3.47;;;2.42;;
12631;SDS011;6381;45.748;12.106;2023-08-31T07:15:25;3.05;;;2.17;;
12631;SDS011;6381;45.748;12.106;2023-08-31T07:17:58;2.63;;;2.00;;
12631;SDS011;6381;45.748;12.106;2023-08-31T07:20:27;2.28;;;1.95;;
12631;SDS011;6381;45.748;12.106;2023-08-31T07:22:56;2.47;;;2.00;;
12631;SDS011;6381;45.748;12.106;2023-08-31T07:25:26;3.75;;;2.20;;
12631;SDS011;6381;45.748;12.106;2023-08-31T07:27:56;3.17;;;1.90;;
12631;SDS011;6381;45.748;12.106;2023-08-31T07:30:27;3.13;;;1.85;;
12631;SDS011;6381;45.748;12.106;2023-08-31T07:32:57;3.22;;;2.30;;
12631;SDS011;6381;45.748;12.106;2023-08-31T07:35:50;3.60;;;2.38;;
12631;SDS011;6381;45.748;12.106;2023-08-31T07:38:19;5.47;;;2.20;;
12631;SDS011;6381;45.748;12.106;2023-08-31T07:40:48;3.63;;;2.30;;
12631;SDS011;6381;45.748;12.106;2023-08-31T07:43:18;5.72;;;2.53;;
12631;SDS011;6381;45.748;12.106;2023-08-31T07:45:49;3.63;;;2.50;;
12631;SDS011;6381;45.748;12.106;2023-08-31T07:48:19;3.05;;;2.50;;
12631;SDS011;6381;45.748;12.106;2023-08-31T07:50:48;4.10;;;2.50;;
12631;SDS011;6381;45.748;12.106;2023-08-31T07:53:18;3.85;;;2.85;;
12631;SDS011;6381;45.748;12.106;2023-08-31T07:55:51;4.35;;;3.10;;
12631;SDS011;6381;45.748;12.106;2023-08-31T07:58:22;6.95;;;2.40;;
12631;SDS011;6381;45.748;12.106;2023-08-31T08:00:54;4.20;;;2.75;;
12631;SDS011;6381;45.748;12.106;2023-08-31T08:03:24;3.90;;;2.80;;
12631;SDS011;6381;45.748;12.106;2023-08-31T08:05:55;3.60;;;2.50;;
12631;SDS011;6381;45.748;12.106;2023-08-31T08:08:25;3.50;;;2.22;;
12631;SDS011;6381;45.748;12.106;2023-08-31T08:10:54;5.10;;;2.17;;
12631;SDS011;6381;45.748;12.106;2023-08-31T08:13:24;2.40;;;2.08;;
12631;SDS011;6381;45.748;12.106;2023-08-31T08:15:54;3.25;;;1.88;;
12631;SDS011;6381;45.748;12.106;2023-08-31T08:18:24;3.47;;;1.80;;
12631;SDS011;6381;45.748;12.106;2023-08-31T08:20:53;3.67;;;2.10;;
12631;SDS011;6381;45.748;12.106;2023-08-31T08:23:22;3.97;;;1.95;;
12631;SDS011;6381;45.748;12.106;2023-08-31T08:25:51;3.03;;;1.90;;
12631;SDS011;6381;45.748;12.106;2023-08-31T08:28:21;4.47;;;2.08;;
12631;SDS011;6381;45.748;12.106;2023-08-31T08:30:50;3.05;;;2.00;;
12631;SDS011;6381;45.748;12.106;2023-08-31T08:33:21;5.50;;;2.20;;
12631;SDS011;6381;45.748;12.106;2023-08-31T08:35:50;2.53;;;1.80;;
12631;SDS011;6381;45.748;12.106;2023-08-31T08:38:19;3.50;;;1.90;;
12631;SDS011;6381;45.748;12.106;2023-08-31T08:40:49;5.18;;;1.80;;
12631;SDS011;6381;45.748;12.106;2023-08-31T08:43:19;1.27;;;1.17;;
12631;SDS011;6381;45.748;12.106;2023-08-31T08:45:53;3.65;;;1.73;;
12631;SDS011;6381;45.748;12.106;2023-08-31T08:48:26;4.55;;;1.65;;
12631;SDS011;6381;45.748;12.106;2023-08-31T08:50:56;3.65;;;1.48;;
12631;SDS011;6381;45.748;12.106;2023-08-31T08:53:26;2.28;;;1.33;;
12631;SDS011;6381;45.748;12.106;2023-08-31T08:55:55;4.78;;;1.67;;
12631;SDS011;6381;45.748;12.106;2023-08-31T08:58:25;1.15;;;1.05;;
12631;SDS011;6381;45.748;12.106;2023-08-31T09:00:54;3.65;;;1.25;;
12631;SDS011;6381;45.748;12.106;2023-08-31T09:03:24;3.55;;;1.42;;
12631;SDS011;6381;45.748;12.106;2023-08-31T09:05:55;2.88;;;1.63;;
12631;SDS011;6381;45.748;12.106;2023-08-31T09:08:32;4.93;;;1.45;;
12631;SDS011;6381;45.748;12.106;2023-08-31T09:11:01;3.35;;;1.40;;
12631;SDS011;6381;45.748;12.106;2023-08-31T09:13:32;2.63;;;1.23;;
12631;SDS011;6381;45.748;12.106;2023-08-31T09:16:01;1.63;;;1.20;;
12631;SDS011;6381;45.748;12.106;2023-08-31T09:18:33;2.08;;;1.33;;
12631;SDS011;6381;45.748;12.106;2023-08-31T09:21:02;1.65;;;1.33;;
12631;SDS011;6381;45.748;12.106;2023-08-31T09:23:32;1.52;;;1.20;;
12631;SDS011;6381;45.748;12.106;2023-08-31T09:26:01;1.92;;;1.30;;
12631;SDS011;6381;45.748;12.106;2023-08-31T09:28:32;2.00;;;1.48;;
12631;SDS011;6381;45.748;12.106;2023-08-31T09:31:03;2.05;;;1.48;;
12631;SDS011;6381;45.748;12.106;2023-08-31T09:33:35;2.70;;;1.50;;
12631;SDS011;6381;45.748;12.106;2023-08-31T09:36:06;2.75;;;1.42;;
12631;SDS011;6381;45.748;12.106;2023-08-31T09:38:41;1.77;;;1.02;;
12631;SDS011;6381;45.748;12.106;2023-08-31T09:41:10;1.10;;;0.90;;
12631;SDS011;6381;45.748;12.106;2023-08-31T09:43:40;1.30;;;1.20;;
12631;SDS011;6381;45.748;12.106;2023-08-31T09:46:09;2.05;;;1.13;;
12631;SDS011;6381;45.748;12.106;2023-08-31T09:48:42;1.45;;;1.30;;
12631;SDS011;6381;45.748;12.106;2023-08-31T09:51:11;1.60;;;1.40;;
12631;SDS011;6381;45.748;12.106;2023-08-31T09:53:44;2.97;;;1.52;;
12631;SDS011;6381;45.748;12.106;2023-08-31T09:56:18;1.60;;;1.23;;
12631;SDS011;6381;45.748;12.106;2023-08-31T09:58:51;1.88;;;1.25;;
12631;SDS011;6381;45.748;12.106;2023-08-31T10:01:21;2.10;;;1.20;;
12631;SDS011;6381;45.748;12.106;2023-08-31T10:03:57;3.03;;;1.33;;
12631;SDS011;6381;45.748;12.106;2023-08-31T10:06:28;1.40;;;1.20;;
12631;SDS011;6381;45.748;12.106;2023-08-31T10:08:59;1.20;;;1.10;;
12631;SDS011;6381;45.748;12.106;2023-08-31T10:11:29;1.60;;;1.23;;
12631;SDS011;6381;45.748;12.106;2023-08-31T10:13:59;1.90;;;1.52;;
12631;SDS011;6381;45.748;12.106;2023-08-31T10:16:31;2.78;;;1.63;;
12631;SDS011;6381;45.748;12.106;2023-08-31T10:19:02;3.00;;;1.50;;
12631;SDS011;6381;45.748;12.106;2023-08-31T10:21:32;3.00;;;1.20;;
12631;SDS011;6381;45.748;12.106;2023-08-31T10:24:01;1.40;;;1.30;;
12631;SDS011;6381;45.748;12.106;2023-08-31T10:26:31;1.45;;;1.20;;
12631;SDS011;6381;45.748;12.106;2023-08-31T10:29:01;1.60;;;1.00;;
12631;SDS011;6381;45.748;12.106;2023-08-31T10:31:33;4.03;;;1.20;;
12631;SDS011;6381;45.748;12.106;2023-08-31T10:34:04;1.55;;;1.17;;
12631;SDS011;6381;45.748;12.106;2023-08-31T10:36:38;1.58;;;1.10;;
12631;SDS011;6381;45.748;12.106;2023-08-31T10:39:12;1.27;;;1.05;;
12631;SDS011;6381;45.748;12.106;2023-08-31T10:41:51;1.27;;;0.98;;
12631;SDS011;6381;45.748;12.106;2023-08-31T10:44:21;2.25;;;1.20;;
12631;SDS011;6381;45.748;12.106;2023-08-31T10:46:52;1.30;;;1.20;;
12631;SDS011;6381;45.748;12.106;2023-08-31T10:49:24;1.08;;;1.00;;
12631;SDS011;6381;45.748;12.106;2023-08-31T10:51:54;3.60;;;1.30;;
12631;SDS011;6381;45.748;12.106;2023-08-31T10:54:25;2.65;;;1.30;;
12631;SDS011;6381;45.748;12.106;2023-08-31T10:57:01;2.10;;;1.38;;
12631;SDS011;6381;45.748;12.106;2023-08-31T11:02:35;1.70;;;1.25;;
12631;SDS011;6381;45.748;12.106;2023-08-31T11:05:07;1.40;;;1.27;;
12631;SDS011;6381;45.748;12.106;2023-08-31T11:07:38;1.40;;;1.23;;
12631;SDS011;6381;45.748;12.106;2023-08-31T11:10:10;2.00;;;1.30;;
12631;SDS011;6381;45.748;12.106;2023-08-31T11:12:41;1.20;;;1.08;;
12631;SDS011;6381;45.748;12.106;2023-08-31T11:15:12;1.40;;;1.02;;
12631;SDS011;6381;45.748;12.106;2023-08-31T11:17:42;1.33;;;1.10;;
12631;SDS011;6381;45.748;12.106;2023-08-31T11:20:15;1.35;;;1.25;;
12631;SDS011;6381;45.748;12.106;2023-08-31T11:22:47;1.35;;;1.00;;
12631;SDS011;6381;45.748;12.106;2023-08-31T11:25:18;1.40;;;1.30;;
12631;SDS011;6381;45.748;12.106;2023-08-31T11:27:54;2.45;;;1.45;;
12631;SDS011;6381;45.748;12.106;2023-08-31T11:30:24;1.77;;;1.35;;
12631;SDS011;6381;45.748;12.106;2023-08-31T11:32:55;1.85;;;1.38;;
12631;SDS011;6381;45.748;12.106;2023-08-31T11:35:30;2.15;;;1.10;;
12631;SDS011;6381;45.748;12.106;2023-08-31T11:49:53;1.35;;;1.05;;
12631;SDS011;6381;45.748;12.106;2023-08-31T11:52:22;1.58;;;1.20;;
12631;SDS011;6381;45.748;12.106;2023-08-31T11:54:51;1.50;;;1.00;;
12631;SDS011;6381;45.748;12.106;2023-08-31T11:57:24;1.33;;;1.10;;
12631;SDS011;6381;45.748;12.106;2023-08-31T11:59:55;2.55;;;1.42;;
12631;SDS011;6381;45.748;12.106;2023-08-31T12:02:24;1.27;;;1.17;;
12631;SDS011;6381;45.748;12.106;2023-08-31T12:04:54;2.08;;;1.30;;
12631;SDS011;6381;45.748;12.106;2023-08-31T12:07:25;1.40;;;1.30;;
12631;SDS011;6381;45.748;12.106;2023-08-31T12:09:53;3.22;;;1.50;;
12631;SDS011;6381;45.748;12.106;2023-08-31T12:12:22;2.13;;;1.30;;
12631;SDS011;6381;45.748;12.106;2023-08-31T12:14:52;1.52;;;1.35;;
12631;SDS011;6381;45.748;12.106;2023-08-31T12:17:21;2.00;;;1.40;;
12631;SDS011;6381;45.748;12.106;2023-08-31T12:19:51;1.90;;;1.30;;
12631;SDS011;6381;45.748;12.106;2023-08-31T12:22:30;1.60;;;1.40;;
12631;SDS011;6381;45.748;12.106;2023-08-31T12:24:59;2.13;;;1.27;;
12631;SDS011;6381;45.748;12.106;2023-08-31T12:27:29;1.98;;;1.30;;
12631;SDS011;6381;45.748;12.106;2023-08-31T12:29:58;2.65;;;1.30;;
12631;SDS011;6381;45.748;12.106;2023-08-31T12:32:26;2.60;;;1.73;;
12631;SDS011;6381;45.748;12.106;2023-08-31T12:34:57;4.55;;;1.70;;
12631;SDS011;6381;45.748;12.106;2023-08-31T12:37:27;2.08;;;1.67;;
12631;SDS011;6381;45.748;12.106;2023-08-31T12:39:56;2.35;;;1.60;;
12631;SDS011;6381;45.748;12.106;2023-08-31T12:42:25;2.33;;;1.40;;
12631;SDS011;6381;45.748;12.106;2023-08-31T12:44:53;2.20;;;1.38;;
12631;SDS011;6381;45.748;12.106;2023-08-31T12:47:23;1.50;;;1.20;;
12631;SDS011;6381;45.748;12.106;2023-08-31T12:49:52;1.73;;;1.38;;
12631;SDS011;6381;45.748;12.106;2023-08-31T12:52:22;1.80;;;1.35;;
12631;SDS011;6381;45.748;12.106;2023-08-31T12:54:51;1.40;;;1.30;;
12631;SDS011;6381;45.748;12.106;2023-08-31T12:57:20;1.98;;;1.20;;
12631;SDS011;6381;45.748;12.106;2023-08-31T12:59:49;2.35;;;1.50;;
12631;SDS011;6381;45.748;12.106;2023-08-31T13:02:18;1.85;;;1.35;;
12631;SDS011;6381;45.748;12.106;2023-08-31T13:04:47;1.67;;;1.42;;
12631;SDS011;6381;45.748;12.106;2023-08-31T13:07:17;2.22;;;1.45;;
12631;SDS011;6381;45.748;12.106;2023-08-31T13:09:47;1.50;;;1.40;;
12631;SDS011;6381;45.748;12.106;2023-08-31T13:12:16;3.05;;;1.52;;
12631;SDS011;6381;45.748;12.106;2023-08-31T13:14:45;2.30;;;1.55;;
12631;SDS011;6381;45.748;12.106;2023-08-31T13:17:14;2.95;;;1.52;;
12631;SDS011;6381;45.748;12.106;2023-08-31T13:19:43;1.40;;;1.30;;
12631;SDS011;6381;45.748;12.106;2023-08-31T13:22:11;2.22;;;1.35;;
12631;SDS011;6381;45.748;12.106;2023-08-31T13:24:43;1.70;;;1.17;;
12631;SDS011;6381;45.748;12.106;2023-08-31T13:27:13;1.65;;;1.40;;
12631;SDS011;6381;45.748;12.106;2023-08-31T13:29:42;1.50;;;1.30;;
12631;SDS011;6381;45.748;12.106;2023-08-31T13:32:11;2.20;;;1.33;;
12631;SDS011;6381;45.748;12.106;2023-08-31T13:34:40;1.30;;;1.20;;
12631;SDS011;6381;45.748;12.106;2023-08-31T13:37:09;2.40;;;1.30;;
12631;SDS011;6381;45.748;12.106;2023-08-31T13:39:38;2.47;;;1.20;;
12631;SDS011;6381;45.748;12.106;2023-08-31T13:42:07;1.50;;;1.40;;
12631;SDS011;6381;45.748;12.106;2023-08-31T13:44:37;3.25;;;1.30;;
12631;SDS011;6381;45.748;12.106;2023-08-31T13:47:06;1.20;;;1.10;;
12631;SDS011;6381;45.748;12.106;2023-08-31T13:49:36;1.55;;;1.10;;
12631;SDS011;6381;45.748;12.106;2023-08-31T13:52:05;2.47;;;1.40;;
12631;SDS011;6381;45.748;12.106;2023-08-31T13:54:36;3.50;;;1.50;;
12631;SDS011;6381;45.748;12.106;2023-08-31T13:57:04;2.92;;;1.35;;
12631;SDS011;6381;45.748;12.106;2023-08-31T13:59:33;1.90;;;1.27;;
12631;SDS011;6381;45.748;12.106;2023-08-31T14:02:03;3.05;;;1.33;;
12631;SDS011;6381;45.748;12.106;2023-08-31T14:04:33;1.30;;;1.20;;
12631;SDS011;6381;45.748;12.106;2023-08-31T14:07:02;1.50;;;1.40;;
12631;SDS011;6381;45.748;12.106;2023-08-31T14:09:31;2.10;;;1.60;;
12631;SDS011;6381;45.748;12.106;2023-08-31T14:11:59;1.60;;;1.20;;
12631;SDS011;6381;45.748;12.106;2023-08-31T14:14:28;2.92;;;1.48;;
12631;SDS011;6381;45.748;12.106;2023-08-31T14:16:57;1.60;;;1.25;;
12631;SDS011;6381;45.748;12.106;2023-08-31T14:19:27;1.83;;;1.40;;
12631;SDS011;6381;45.748;12.106;2023-08-31T14:21:56;1.98;;;1.30;;
12631;SDS011;6381;45.748;12.106;2023-08-31T14:24:25;3.28;;;1.40;;
12631;SDS011;6381;45.748;12.106;2023-08-31T14:26:54;2.20;;;1.30;;
12631;SDS011;6381;45.748;12.106;2023-08-31T14:29:23;1.35;;;1.20;;
12631;SDS011;6381;45.748;12.106;2023-08-31T14:31:52;1.58;;;1.20;;
12631;SDS011;6381;45.748;12.106;2023-08-31T14:34:21;1.63;;;1.13;;
12631;SDS011;6381;45.748;12.106;2023-08-31T14:36:53;1.30;;;1.20;;
12631;SDS011;6381;45.748;12.106;2023-08-31T14:39:24;1.77;;;1.27;;
12631;SDS011;6381;45.748;12.106;2023-08-31T14:41:56;2.75;;;1.20;;
12631;SDS011;6381;45.748;12.106;2023-08-31T14:44:25;4.30;;;1.20;;
12631;SDS011;6381;45.748;12.106;2023-08-31T14:46:54;1.55;;;1.35;;
12631;SDS011;6381;45.748;12.106;2023-08-31T14:49:22;2.83;;;1.30;;
12631;SDS011;6381;45.748;12.106;2023-08-31T14:51:54;1.98;;;1.33;;
12631;SDS011;6381;45.748;12.106;2023-08-31T14:54:23;1.80;;;1.20;;
12631;SDS011;6381;45.748;12.106;2023-08-31T14:56:51;1.80;;;1.30;;
12631;SDS011;6381;45.748;12.106;2023-08-31T14:59:20;2.03;;;1.30;;
12631;SDS011;6381;45.748;12.106;2023-08-31T15:01:49;2.05;;;1.20;;
12631;SDS011;6381;45.748;12.106;2023-08-31T15:04:18;1.40;;;1.10;;
12631;SDS011;6381;45.748;12.106;2023-08-31T15:06:47;1.50;;;1.40;;
12631;SDS011;6381;45.748;12.106;2023-08-31T15:09:17;1.38;;;1.27;;
12631;SDS011;6381;45.748;12.106;2023-08-31T15:11:46;1.55;;;1.23;;
12631;SDS011;6381;45.748;12.106;2023-08-31T15:14:15;1.67;;;1.27;;
12631;SDS011;6381;45.748;12.106;2023-08-31T15:16:44;1.60;;;1.40;;
12631;SDS011;6381;45.748;12.106;2023-08-31T15:19:13;2.38;;;1.45;;
12631;SDS011;6381;45.748;12.106;2023-08-31T15:21:42;2.03;;;1.40;;
12631;SDS011;6381;45.748;12.106;2023-08-31T15:24:10;2.80;;;1.40;;